Time;durP1;ratioP1;P1;durP2;ratioP2;P2;SDS_P1;SDS_P2;PMS_P1;PMS_P2;Temp;Humidity;BMP_temperature;BMP_pressure;BME280_temperature;BME280_humidity;BME280_pressure;Samples;Min_cycle;Max_cycle;Signal;HPM_P1;HPM_P2
2024/01/23 00:00:27;;;;;;;12.13;2.83;;;;;;;;;;5105873;28;20113;-74
2024/01/23 00:02:52;;;;;;;12.97;4.00;;;;;;;;;;5102531;28;20020;-74
2024/01/23 00:05:17;;;;;;;15.98;3.10;;;;;;;;;;5105057;28;20733;-74
2024/01/23 00:07:42;;;;;;;16.20;3.20;;;;;;;;;;5103464;28;20845;-74
2024/01/23 00:10:07;;;;;;;16.30;3.10;;;;;;;;;;5104975;28;20070;-74
2024/01/23 00:12:33;;;;;;;8.13;2.53;;;;;;;;;;5105075;28;20345;-75
2024/01/23 00:14:58;;;;;;;16.65;2.97;;;;;;;;;;5103086;28;20099;-74
2024/01/23 00:17:23;;;;;;;15.93;3.97;;;;;;;;;;5104249;28;20396;-74
2024/01/23 00:19:49;;;;;;;13.88;2.33;;;;;;;;;;5103493;28;20042;-74
2024/01/23 00:22:14;;;;;;;11.90;2.57;;;;;;;;;;5104049;28;20077;-74
2024/01/23 00:24:39;;;;;;;13.93;2.60;;;;;;;;;;5106808;28;20294;-74
2024/01/23 00:27:04;;;;;;;16.13;3.13;;;;;;;;;;5101192;28;20764;-74
2024/01/23 00:29:29;;;;;;;13.35;3.20;;;;;;;;;;5108570;28;20089;-74
2024/01/23 00:31:55;;;;;;;12.40;3.15;;;;;;;;;;5100930;28;20049;-74
2024/01/23 00:34:20;;;;;;;18.90;3.53;;;;;;;;;;5108669;28;20027;-74
2024/01/23 00:36:45;;;;;;;16.43;2.63;;;;;;;;;;5101771;28;20020;-74
2024/01/23 00:39:10;;;;;;;17.77;3.10;;;;;;;;;;5107024;28;20028;-74
2024/01/23 00:41:35;;;;;;;16.07;3.10;;;;;;;;;;5103205;28;20387;-74
2024/01/23 00:44:00;;;;;;;13.13;3.40;;;;;;;;;;5105444;28;20269;-74
2024/01/23 00:46:26;;;;;;;11.83;3.07;;;;;;;;;;5104278;28;20071;-74
2024/01/23 00:48:51;;;;;;;12.23;2.97;;;;;;;;;;5102927;28;20787;-74
2024/01/23 00:51:16;;;;;;;15.70;3.37;;;;;;;;;;5104758;28;20383;-74
2024/01/23 00:53:41;;;;;;;15.50;2.93;;;;;;;;;;5102490;28;20288;-74
2024/01/23 00:56:06;;;;;;;11.80;3.50;;;;;;;;;;5105011;28;20254;-74
2024/01/23 00:58:31;;;;;;;16.40;3.00;;;;;;;;;;5104446;28;20092;-75
2024/01/23 01:00:57;;;;;;;12.55;3.05;;;;;;;;;;5101030;28;20024;-74
2024/01/23 01:03:22;;;;;;;12.10;2.83;;;;;;;;;;5104332;28;20023;-74
2024/01/23 01:05:47;;;;;;;15.55;3.47;;;;;;;;;;5104234;28;20261;-74
2024/01/23 01:08:12;;;;;;;9.77;2.73;;;;;;;;;;5101446;28;20024;-74
2024/01/23 01:10:37;;;;;;;11.30;3.03;;;;;;;;;;5104353;28;20372;-74
2024/01/23 01:13:03;;;;;;;15.77;3.07;;;;;;;;;;5101812;28;20103;-74
2024/01/23 01:15:28;;;;;;;13.75;3.45;;;;;;;;;;5103878;28;20277;-74
2024/01/23 01:17:53;;;;;;;14.17;3.73;;;;;;;;;;5102411;28;20015;-74
2024/01/23 01:20:18;;;;;;;14.87;3.10;;;;;;;;;;5104031;28;20270;-74
2024/01/23 01:22:44;;;;;;;23.43;4.17;;;;;;;;;;5104250;28;20622;-74
2024/01/23 01:25:09;;;;;;;21.02;4.55;;;;;;;;;;5105553;28;20273;-74
2024/01/23 01:27:34;;;;;;;22.58;3.22;;;;;;;;;;5100784;28;20416;-74
2024/01/23 01:30:00;;;;;;;13.35;2.90;;;;;;;;;;5106552;28;20470;-74
2024/01/23 01:32:25;;;;;;;17.13;3.47;;;;;;;;;;5102954;28;20379;-74
2024/01/23 01:34:50;;;;;;;18.77;3.57;;;;;;;;;;5103940;28;20035;-74
2024/01/23 01:37:15;;;;;;;21.33;4.00;;;;;;;;;;5102270;28;20304;-74
2024/01/23 01:39:41;;;;;;;20.33;4.57;;;;;;;;;;5103957;28;20269;-74
2024/01/23 01:42:06;;;;;;;13.75;2.85;;;;;;;;;;5105028;28;20623;-74
2024/01/23 01:44:32;;;;;;;11.03;2.87;;;;;;;;;;5107736;28;20016;-74
2024/01/23 01:46:58;;;;;;;15.13;3.03;;;;;;;;;;5107586;28;20282;-74
2024/01/23 01:49:24;;;;;;;16.50;3.75;;;;;;;;;;5099836;28;20095;-74
2024/01/23 01:51:49;;;;;;;19.35;3.65;;;;;;;;;;5108519;28;20027;-74
2024/01/23 01:54:15;;;;;;;15.02;3.20;;;;;;;;;;5100972;28;20172;-74
2024/01/23 01:56:40;;;;;;;19.02;3.63;;;;;;;;;;5099837;28;20051;-74
2024/01/23 01:59:05;;;;;;;13.82;3.08;;;;;;;;;;5105470;28;20402;-75
2024/01/23 02:01:30;;;;;;;17.23;4.23;;;;;;;;;;5100675;28;20424;-75
2024/01/23 02:03:56;;;;;;;16.15;2.88;;;;;;;;;;5105256;28;20326;-74
2024/01/23 02:06:22;;;;;;;18.10;5.85;;;;;;;;;;5100386;28;20042;-74
2024/01/23 02:08:48;;;;;;;22.23;4.50;;;;;;;;;;5106598;28;20117;-74
2024/01/23 02:11:14;;;;;;;17.42;3.38;;;;;;;;;;5099802;28;20016;-74
2024/01/23 02:13:39;;;;;;;17.70;3.58;;;;;;;;;;5105144;28;20028;-74
2024/01/23 02:16:04;;;;;;;13.50;3.07;;;;;;;;;;5102120;28;20043;-74
2024/01/23 02:18:29;;;;;;;16.33;2.97;;;;;;;;;;5102223;28;20261;-74
2024/01/23 02:20:54;;;;;;;15.85;3.13;;;;;;;;;;5103422;28;20024;-74
2024/01/23 02:23:20;;;;;;;18.50;3.33;;;;;;;;;;5104883;28;20016;-74
2024/01/23 02:25:45;;;;;;;16.42;2.60;;;;;;;;;;5106589;28;20273;-74
2024/01/23 02:28:11;;;;;;;18.38;3.97;;;;;;;;;;5105691;28;20030;-74
2024/01/23 02:30:37;;;;;;;15.95;3.08;;;;;;;;;;5107433;27;20011;-74
2024/01/23 02:33:05;;;;;;;16.95;3.10;;;;;;;;;;5106755;28;20073;-74
2024/01/23 02:35:31;;;;;;;15.10;3.40;;;;;;;;;;5106598;27;20471;-74
2024/01/23 02:37:56;;;;;;;15.40;3.17;;;;;;;;;;5107394;28;20076;-74
2024/01/23 02:40:22;;;;;;;19.23;3.47;;;;;;;;;;5106034;28;20016;-74
2024/01/23 02:42:47;;;;;;;20.92;4.80;;;;;;;;;;5107411;28;20039;-74
2024/01/23 02:45:12;;;;;;;15.07;3.10;;;;;;;;;;5108686;28;20371;-74
2024/01/23 02:47:37;;;;;;;17.63;3.50;;;;;;;;;;5104537;28;20016;-74
2024/01/23 02:50:02;;;;;;;13.83;2.90;;;;;;;;;;5110374;28;20059;-74
2024/01/23 02:52:31;;;;;;;23.58;4.20;;;;;;;;;;5103462;28;20265;-74
2024/01/23 02:54:56;;;;;;;13.52;2.88;;;;;;;;;;5112313;28;20523;-74
2024/01/23 02:57:21;;;;;;;15.15;3.40;;;;;;;;;;5103781;28;20027;-74
2024/01/23 02:59:46;;;;;;;14.95;3.20;;;;;;;;;;5111172;28;20727;-74
2024/01/23 03:02:12;;;;;;;15.85;4.35;;;;;;;;;;5103588;28;20024;-74
2024/01/23 03:04:37;;;;;;;17.88;4.07;;;;;;;;;;5107031;28;20016;-74
2024/01/23 03:07:02;;;;;;;14.53;3.00;;;;;;;;;;5108444;28;20377;-74
2024/01/23 03:09:27;;;;;;;22.85;3.88;;;;;;;;;;5103504;28;20289;-74
2024/01/23 03:11:53;;;;;;;18.03;2.87;;;;;;;;;;5109267;28;20442;-74
2024/01/23 03:14:19;;;;;;;22.25;4.25;;;;;;;;;;5102599;28;20257;-74
2024/01/23 03:16:44;;;;;;;22.30;3.93;;;;;;;;;;5107504;28;20018;-74
2024/01/23 03:19:09;;;;;;;16.43;3.93;;;;;;;;;;5105262;28;20755;-74
2024/01/23 03:21:34;;;;;;;24.13;3.63;;;;;;;;;;5105205;28;20357;-74
2024/01/23 03:23:59;;;;;;;17.93;3.17;;;;;;;;;;5106125;28;20759;-74
2024/01/23 03:26:25;;;;;;;24.27;4.20;;;;;;;;;;5112214;28;20312;-74
2024/01/23 03:28:50;;;;;;;21.30;4.07;;;;;;;;;;5110476;28;20031;-74
2024/01/23 03:31:15;;;;;;;24.27;4.23;;;;;;;;;;5105691;28;20428;-74
2024/01/23 03:33:41;;;;;;;16.30;3.30;;;;;;;;;;5104914;28;20277;-74
2024/01/23 03:36:07;;;;;;;14.48;3.70;;;;;;;;;;5105750;28;20019;-74
2024/01/23 03:38:32;;;;;;;19.15;4.05;;;;;;;;;;5104232;28;20020;-74
2024/01/23 03:40:57;;;;;;;17.60;4.17;;;;;;;;;;5104514;28;20022;-74
2024/01/23 03:43:23;;;;;;;17.40;3.63;;;;;;;;;;5104758;28;20641;-74
2024/01/23 03:45:48;;;;;;;20.55;3.80;;;;;;;;;;5105723;28;20311;-74
2024/01/23 03:48:13;;;;;;;21.95;5.30;;;;;;;;;;5105926;28;20024;-74
2024/01/23 03:50:38;;;;;;;19.73;3.73;;;;;;;;;;5104706;28;20089;-74
2024/01/23 03:53:03;;;;;;;16.38;3.78;;;;;;;;;;5106021;28;20249;-74
2024/01/23 03:55:28;;;;;;;24.53;3.40;;;;;;;;;;5106581;28;20016;-74
2024/01/23 03:57:54;;;;;;;20.67;4.30;;;;;;;;;;5103419;28;20294;-75
2024/01/23 04:00:19;;;;;;;22.17;4.30;;;;;;;;;;5114790;28;20277;-74
2024/01/23 04:02:44;;;;;;;16.20;3.53;;;;;;;;;;5105351;28;20383;-74
2024/01/23 04:05:10;;;;;;;18.93;3.47;;;;;;;;;;5104997;28;20019;-74
2024/01/23 04:07:35;;;;;;;21.02;3.80;;;;;;;;;;5108138;28;20296;-74
2024/01/23 04:10:00;;;;;;;16.60;3.22;;;;;;;;;;5104791;28;20075;-74
2024/01/23 04:12:26;;;;;;;18.90;3.20;;;;;;;;;;5102277;28;20057;-74
2024/01/23 04:14:51;;;;;;;22.90;3.42;;;;;;;;;;5102442;28;20016;-74
2024/01/23 04:17:16;;;;;;;17.00;3.20;;;;;;;;;;5101948;28;20020;-74
2024/01/23 04:19:42;;;;;;;13.60;2.97;;;;;;;;;;5104756;28;20277;-74
2024/01/23 04:22:07;;;;;;;20.38;3.40;;;;;;;;;;5101813;28;20027;-74
2024/01/23 04:24:36;;;;;;;27.20;3.70;;;;;;;;;;5103034;28;20020;-74
2024/01/23 04:27:01;;;;;;;19.88;4.18;;;;;;;;;;5101116;28;20282;-74
2024/01/23 04:29:26;;;;;;;20.90;3.63;;;;;;;;;;5106116;28;20032;-74
2024/01/23 04:31:51;;;;;;;20.08;4.78;;;;;;;;;;5101345;28;20317;-74
2024/01/23 04:34:16;;;;;;;23.17;4.23;;;;;;;;;;5105270;28;20023;-74
2024/01/23 04:36:42;;;;;;;17.87;3.53;;;;;;;;;;5106352;28;20266;-74
2024/01/23 04:39:07;;;;;;;23.40;3.50;;;;;;;;;;5103146;28;20031;-74
2024/01/23 04:41:32;;;;;;;15.67;3.90;;;;;;;;;;5104815;28;20269;-74
2024/01/23 04:43:57;;;;;;;18.23;4.80;;;;;;;;;;5102432;28;20281;-74
2024/01/23 04:46:23;;;;;;;19.00;3.70;;;;;;;;;;5103644;28;20261;-74
2024/01/23 04:48:48;;;;;;;22.27;3.85;;;;;;;;;;5107254;28;20822;-74
2024/01/23 04:51:13;;;;;;;14.87;3.80;;;;;;;;;;5102989;28;20034;-74
2024/01/23 04:53:39;;;;;;;23.60;4.47;;;;;;;;;;5105933;28;20270;-74
2024/01/23 04:56:04;;;;;;;20.77;3.63;;;;;;;;;;5101296;28;20024;-74
2024/01/23 04:58:29;;;;;;;20.38;3.53;;;;;;;;;;5107558;28;20077;-74
2024/01/23 05:00:54;;;;;;;24.70;4.47;;;;;;;;;;5100556;28;20064;-74
2024/01/23 05:03:20;;;;;;;21.38;3.80;;;;;;;;;;5108044;28;20254;-74
2024/01/23 05:05:45;;;;;;;25.50;3.23;;;;;;;;;;5104790;28;20022;-74
2024/01/23 05:08:10;;;;;;;19.10;3.90;;;;;;;;;;5105568;28;20625;-74
2024/01/23 05:10:35;;;;;;;25.60;5.28;;;;;;;;;;5103095;28;20038;-74
2024/01/23 05:13:00;;;;;;;16.90;3.40;;;;;;;;;;5104149;28;20065;-74
2024/01/23 05:15:26;;;;;;;26.03;3.40;;;;;;;;;;5103594;28;20348;-74
2024/01/23 05:17:51;;;;;;;21.27;4.07;;;;;;;;;;5102163;28;20326;-74
2024/01/23 05:20:16;;;;;;;22.35;3.67;;;;;;;;;;5103483;28;20300;-74
2024/01/23 05:22:42;;;;;;;16.73;3.43;;;;;;;;;;5102533;28;20020;-74
2024/01/23 05:25:07;;;;;;;32.10;4.90;;;;;;;;;;5104710;28;20311;-74
2024/01/23 05:27:32;;;;;;;18.65;3.40;;;;;;;;;;5103950;28;20261;-74
2024/01/23 05:29:57;;;;;;;17.38;3.10;;;;;;;;;;5102276;28;20402;-74
2024/01/23 05:32:23;;;;;;;20.02;4.30;;;;;;;;;;5104535;28;20008;-74
2024/01/23 05:34:49;;;;;;;18.05;3.58;;;;;;;;;;5103509;28;20016;-74
2024/01/23 05:37:14;;;;;;;21.45;4.10;;;;;;;;;;5101331;28;20029;-74
2024/01/23 05:39:39;;;;;;;18.63;3.30;;;;;;;;;;5104389;28;20027;-74
2024/01/23 05:42:06;;;;;;;23.33;3.23;;;;;;;;;;5100393;28;20094;-74
2024/01/23 05:44:31;;;;;;;18.50;4.13;;;;;;;;;;5104255;28;20285;-74
2024/01/23 05:46:56;;;;;;;19.70;3.25;;;;;;;;;;5102125;28;20016;-74
2024/01/23 05:49:21;;;;;;;18.77;3.27;;;;;;;;;;5102349;28;20059;-74
2024/01/23 05:51:47;;;;;;;23.90;3.43;;;;;;;;;;5103779;28;20269;-74
2024/01/23 05:54:12;;;;;;;19.33;4.40;;;;;;;;;;5101798;28;20323;-74
2024/01/23 05:56:37;;;;;;;15.57;2.83;;;;;;;;;;5104002;28;20492;-74
2024/01/23 05:59:02;;;;;;;16.03;3.90;;;;;;;;;;5110290;28;20462;-74
2024/01/23 06:01:28;;;;;;;22.95;3.92;;;;;;;;;;5108597;28;20270;-74
2024/01/23 06:03:53;;;;;;;22.42;3.67;;;;;;;;;;5112098;28;20038;-74
2024/01/23 06:06:19;;;;;;;18.10;3.63;;;;;;;;;;5105004;28;20013;-74
2024/01/23 06:08:44;;;;;;;15.35;3.50;;;;;;;;;;5111163;28;20028;-74
2024/01/23 06:11:09;;;;;;;21.35;3.47;;;;;;;;;;5103990;28;20456;-74
2024/01/23 06:13:35;;;;;;;17.03;3.30;;;;;;;;;;5111700;28;20049;-74
2024/01/23 06:16:00;;;;;;;17.73;3.97;;;;;;;;;;5104418;28;21236;-74
2024/01/23 06:18:25;;;;;;;24.67;3.90;;;;;;;;;;5109868;28;20253;-74
2024/01/23 06:20:50;;;;;;;19.67;4.20;;;;;;;;;;5105236;28;20049;-74
2024/01/23 06:23:15;;;;;;;15.50;3.70;;;;;;;;;;5108760;28;20273;-74
2024/01/23 06:25:41;;;;;;;22.92;3.85;;;;;;;;;;5106878;28;20842;-74
2024/01/23 06:28:06;;;;;;;23.13;4.00;;;;;;;;;;5106069;28;20425;-74
2024/01/23 06:30:31;;;;;;;20.73;3.65;;;;;;;;;;5106809;28;20269;-74
2024/01/23 06:32:57;;;;;;;19.17;3.75;;;;;;;;;;5105648;28;20027;-74
2024/01/23 06:35:22;;;;;;;17.45;3.55;;;;;;;;;;5104269;28;20034;-74
2024/01/23 06:37:47;;;;;;;19.55;3.78;;;;;;;;;;5111371;28;20102;-74
2024/01/23 06:40:12;;;;;;;21.27;4.17;;;;;;;;;;5104591;28;20023;-74
2024/01/23 06:42:38;;;;;;;19.48;4.20;;;;;;;;;;5110335;28;20319;-74
2024/01/23 06:45:04;;;;;;;18.77;3.38;;;;;;;;;;5105538;28;20045;-74
2024/01/23 06:47:29;;;;;;;19.48;4.07;;;;;;;;;;5105740;28;20023;-74
2024/01/23 06:49:54;;;;;;;19.50;4.15;;;;;;;;;;5107023;28;20035;-74
2024/01/23 06:52:20;;;;;;;22.70;4.80;;;;;;;;;;5112061;28;20016;-74
2024/01/23 06:54:45;;;;;;;16.45;3.55;;;;;;;;;;5106991;28;20590;-74
2024/01/23 06:57:10;;;;;;;23.38;4.60;;;;;;;;;;5104782;28;20287;-74
2024/01/23 06:59:35;;;;;;;15.25;3.50;;;;;;;;;;5106113;27;20036;-74
2024/01/23 07:02:00;;;;;;;20.30;4.00;;;;;;;;;;5106747;28;20062;-74
2024/01/23 07:04:26;;;;;;;22.42;4.03;;;;;;;;;;5108735;28;20024;-74
2024/01/23 07:06:51;;;;;;;21.33;3.70;;;;;;;;;;5105887;28;20062;-74
2024/01/23 07:09:16;;;;;;;27.77;5.10;;;;;;;;;;5105379;28;20301;-74
2024/01/23 07:11:42;;;;;;;25.40;4.90;;;;;;;;;;5105445;28;20270;-74
2024/01/23 07:14:07;;;;;;;18.75;3.60;;;;;;;;;;5107231;28;20354;-74
2024/01/23 07:16:32;;;;;;;20.58;3.90;;;;;;;;;;5111164;28;20463;-74
2024/01/23 07:18:58;;;;;;;20.83;3.80;;;;;;;;;;5110117;28;20032;-74
2024/01/23 07:21:23;;;;;;;23.20;4.28;;;;;;;;;;5102946;28;20024;-74
2024/01/23 07:23:48;;;;;;;17.27;3.88;;;;;;;;;;5110561;28;20103;-74
2024/01/23 07:26:13;;;;;;;19.80;3.63;;;;;;;;;;5103428;28;20098;-74
2024/01/23 07:28:39;;;;;;;21.13;4.40;;;;;;;;;;5109496;28;20649;-74
2024/01/23 07:31:04;;;;;;;20.55;3.72;;;;;;;;;;5097329;28;20007;-74
2024/01/23 07:33:29;;;;;;;22.23;3.30;;;;;;;;;;5105861;28;20024;-74
2024/01/23 07:35:55;;;;;;;18.70;4.60;;;;;;;;;;5103143;28;20039;-74
2024/01/23 07:38:20;;;;;;;17.23;3.80;;;;;;;;;;5108174;28;20266;-74
2024/01/23 07:40:45;;;;;;;30.10;4.83;;;;;;;;;;5102598;28;20262;-74
2024/01/23 07:43:10;;;;;;;17.70;3.50;;;;;;;;;;5108414;28;20288;-74
2024/01/23 07:45:35;;;;;;;16.85;3.78;;;;;;;;;;5102694;28;20299;-75
2024/01/23 07:48:01;;;;;;;19.23;4.05;;;;;;;;;;5108393;28;20059;-74
2024/01/23 07:50:27;;;;;;;22.17;3.63;;;;;;;;;;5102855;28;20126;-74
2024/01/23 07:52:52;;;;;;;20.60;4.55;;;;;;;;;;5106998;28;20261;-74
2024/01/23 07:55:17;;;;;;;20.55;4.00;;;;;;;;;;5103405;28;20035;-74
2024/01/23 07:57:43;;;;;;;21.77;5.28;;;;;;;;;;5105483;28;20019;-74
2024/01/23 08:00:09;;;;;;;18.17;4.67;;;;;;;;;;5105690;28;20554;-74
2024/01/23 08:02:34;;;;;;;19.63;4.50;;;;;;;;;;5101881;28;20265;-74
2024/01/23 08:05:00;;;;;;;19.83;4.10;;;;;;;;;;5108903;28;20022;-74
2024/01/23 08:07:25;;;;;;;15.90;3.33;;;;;;;;;;5111296;28;20756;-74
2024/01/23 08:09:50;;;;;;;27.30;4.30;;;;;;;;;;5104548;28;20032;-74
2024/01/23 08:12:16;;;;;;;19.42;3.95;;;;;;;;;;5105374;28;20019;-74
2024/01/23 08:14:41;;;;;;;21.70;5.27;;;;;;;;;;5104232;28;20051;-74
2024/01/23 08:17:06;;;;;;;22.17;4.55;;;;;;;;;;5104941;28;20735;-74
2024/01/23 08:19:32;;;;;;;20.90;4.73;;;;;;;;;;5103487;28;20490;-74
2024/01/23 08:21:57;;;;;;;14.90;3.42;;;;;;;;;;5098206;28;20262;-74
2024/01/23 08:24:22;;;;;;;24.52;4.45;;;;;;;;;;5105639;28;20103;-73
2024/01/23 08:26:52;;;;;;;18.67;4.70;;;;;;;;;;5108702;28;20026;-74
2024/01/23 08:29:17;;;;;;;23.98;4.47;;;;;;;;;;5102093;28;20290;-74
2024/01/23 08:31:42;;;;;;;22.73;4.27;;;;;;;;;;5098482;28;20060;-74
2024/01/23 08:34:07;;;;;;;21.07;4.70;;;;;;;;;;5105333;28;20274;-74
2024/01/23 08:36:32;;;;;;;19.60;4.00;;;;;;;;;;5105038;28;20291;-74
2024/01/23 08:38:58;;;;;;;13.07;3.70;;;;;;;;;;5106321;28;20284;-73
2024/01/23 08:41:23;;;;;;;17.47;4.13;;;;;;;;;;5098273;28;20257;-74
2024/01/23 08:43:49;;;;;;;19.92;4.63;;;;;;;;;;5103627;28;20290;-74
2024/01/23 08:46:14;;;;;;;20.42;4.28;;;;;;;;;;5103391;28;20031;-74
2024/01/23 08:48:39;;;;;;;18.27;4.00;;;;;;;;;;5105858;28;20028;-74
2024/01/23 08:51:04;;;;;;;22.17;4.38;;;;;;;;;;5101587;28;20680;-74
2024/01/23 08:53:30;;;;;;;25.23;4.60;;;;;;;;;;5107287;28;20459;-74
2024/01/23 08:55:55;;;;;;;18.65;4.25;;;;;;;;;;5101359;28;20031;-74
2024/01/23 08:58:20;;;;;;;23.20;4.20;;;;;;;;;;5107538;28;20482;-74
2024/01/23 09:00:45;;;;;;;16.80;3.97;;;;;;;;;;5101178;28;20273;-74
2024/01/23 09:03:11;;;;;;;20.40;4.05;;;;;;;;;;5107822;28;20589;-74
2024/01/23 09:05:36;;;;;;;19.55;3.88;;;;;;;;;;5105152;28;20463;-74
2024/01/23 09:08:01;;;;;;;21.20;4.27;;;;;;;;;;5105575;28;20107;-74
2024/01/23 09:10:27;;;;;;;19.27;4.13;;;;;;;;;;5103603;28;20285;-74
2024/01/23 09:12:52;;;;;;;22.83;4.18;;;;;;;;;;5103230;28;20032;-74
2024/01/23 09:15:19;;;;;;;20.92;3.90;;;;;;;;;;5104457;28;20103;-74
2024/01/23 09:17:44;;;;;;;23.13;4.90;;;;;;;;;;5104340;28;20149;-74
2024/01/23 09:20:10;;;;;;;19.85;4.32;;;;;;;;;;5103706;28;20466;-74
2024/01/23 09:22:35;;;;;;;26.27;5.43;;;;;;;;;;5103313;28;20012;-74
2024/01/23 09:25:02;;;;;;;18.90;3.90;;;;;;;;;;5103991;28;20024;-74
2024/01/23 09:27:28;;;;;;;20.05;3.92;;;;;;;;;;5103618;28;20257;-74
2024/01/23 09:29:53;;;;;;;21.40;4.03;;;;;;;;;;5101436;28;20039;-74
2024/01/23 09:32:18;;;;;;;21.60;4.33;;;;;;;;;;5106116;28;20318;-74
2024/01/23 09:34:44;;;;;;;18.83;3.77;;;;;;;;;;5103262;28;20835;-74
2024/01/23 09:37:10;;;;;;;18.52;3.97;;;;;;;;;;5101868;28;20266;-74
2024/01/23 09:39:35;;;;;;;25.07;4.03;;;;;;;;;;5104059;28;20085;-74
2024/01/23 09:42:02;;;;;;;15.73;3.40;;;;;;;;;;5100635;28;20297;-74
2024/01/23 09:44:27;;;;;;;22.88;5.85;;;;;;;;;;5104187;28;20306;-74
2024/01/23 09:46:53;;;;;;;23.90;4.32;;;;;;;;;;5102695;28;20016;-74
2024/01/23 09:49:18;;;;;;;17.75;4.82;;;;;;;;;;5102571;28;20032;-74
2024/01/23 09:51:47;;;;;;;18.25;3.88;;;;;;;;;;5103867;28;20020;-74
2024/01/23 09:54:12;;;;;;;20.33;4.38;;;;;;;;;;5101973;28;20024;-73
2024/01/23 09:56:39;;;;;;;18.45;4.47;;;;;;;;;;5103217;28;20071;-74
2024/01/23 09:59:04;;;;;;;24.73;4.50;;;;;;;;;;5102672;28;20051;-74
2024/01/23 10:01:29;;;;;;;21.83;4.75;;;;;;;;;;5102284;28;20012;-73
2024/01/23 10:03:57;;;;;;;22.73;4.38;;;;;;;;;;5108982;28;20024;-74
2024/01/23 10:06:23;;;;;;;19.92;4.20;;;;;;;;;;5101491;28;20020;-73
2024/01/23 10:08:48;;;;;;;24.00;5.10;;;;;;;;;;5106142;28;20027;-74
2024/01/23 10:11:13;;;;;;;18.17;4.23;;;;;;;;;;5100915;28;20016;-74
2024/01/23 10:13:41;;;;;;;20.30;4.25;;;;;;;;;;5107702;28;20833;-74
2024/01/23 10:16:06;;;;;;;25.42;4.22;;;;;;;;;;5099472;28;20380;-74
2024/01/23 10:18:32;;;;;;;20.50;5.20;;;;;;;;;;5108000;28;20032;-74
2024/01/23 10:20:58;;;;;;;23.38;5.38;;;;;;;;;;5100102;28;20024;-74
2024/01/23 10:23:23;;;;;;;22.13;4.82;;;;;;;;;;5105854;28;20093;-74
2024/01/23 10:25:48;;;;;;;18.90;4.57;;;;;;;;;;5101783;28;20030;-74
2024/01/23 10:28:15;;;;;;;16.17;4.30;;;;;;;;;;5104280;28;20015;-74
2024/01/23 10:30:40;;;;;;;17.70;4.45;;;;;;;;;;5094913;28;20810;-74
2024/01/23 10:33:06;;;;;;;17.27;4.53;;;;;;;;;;5109048;28;20020;-74
2024/01/23 10:35:34;;;;;;;17.48;4.55;;;;;;;;;;5106460;28;20026;-74
2024/01/23 10:38:03;;;;;;;17.92;4.88;;;;;;;;;;5101310;28;20103;-74
2024/01/23 10:40:29;;;;;;;20.30;5.47;;;;;;;;;;5100590;28;20020;-74
2024/01/23 10:42:55;;;;;;;23.60;5.22;;;;;;;;;;5107704;28;20019;-74
2024/01/23 10:45:21;;;;;;;20.85;5.18;;;;;;;;;;5103289;28;20016;-74
2024/01/23 10:47:46;;;;;;;23.33;5.45;;;;;;;;;;5108709;28;20149;-74
2024/01/23 10:50:12;;;;;;;20.85;4.70;;;;;;;;;;5105359;28;20042;-74
2024/01/23 10:52:43;;;;;;;21.95;5.53;;;;;;;;;;5106173;28;20035;-74
2024/01/23 10:55:09;;;;;;;22.92;4.68;;;;;;;;;;5106795;28;20019;-74
2024/01/23 10:57:35;;;;;;;20.77;5.80;;;;;;;;;;5106113;28;20474;-74
2024/01/23 11:00:02;;;;;;;20.75;5.70;;;;;;;;;;5106033;28;20085;-74
2024/01/23 11:02:42;;;;;;;24.08;5.65;;;;;;;;;;5105617;28;20144;-74
2024/01/23 11:05:07;;;;;;;27.55;6.13;;;;;;;;;;5110626;27;20081;-74
2024/01/23 11:07:51;;;;;;;21.83;5.05;;;;;;;;;;5105630;28;20016;-74
2024/01/23 11:10:30;;;;;;;21.55;4.90;;;;;;;;;;5106893;28;20097;-74
2024/01/23 11:12:55;;;;;;;18.13;4.53;;;;;;;;;;5105826;28;20023;-74
2024/01/23 11:15:20;;;;;;;18.10;4.40;;;;;;;;;;5107010;28;20069;-74
2024/01/23 11:17:46;;;;;;;24.10;5.53;;;;;;;;;;5105241;28;20370;-74
2024/01/23 11:20:15;;;;;;;24.80;4.17;;;;;;;;;;5105936;28;20011;-74
2024/01/23 11:22:41;;;;;;;19.40;4.63;;;;;;;;;;5105513;28;20312;-74
2024/01/23 11:25:06;;;;;;;22.38;4.22;;;;;;;;;;5106584;28;20065;-74
2024/01/23 11:27:33;;;;;;;21.08;4.22;;;;;;;;;;5106106;28;20088;-74
2024/01/23 11:29:59;;;;;;;18.23;4.22;;;;;;;;;;5102854;28;20502;-74
2024/01/23 11:32:25;;;;;;;24.38;4.95;;;;;;;;;;5106537;28;20062;-74
2024/01/23 11:35:11;;;;;;;21.67;4.68;;;;;;;;;;5104395;28;20074;-74
2024/01/23 11:37:43;;;;;;;18.83;4.53;;;;;;;;;;5107541;28;20375;-74
2024/01/23 11:40:35;;;;;;;21.83;4.18;;;;;;;;;;5102896;28;20107;-74
2024/01/23 11:43:07;;;;;;;24.38;5.13;;;;;;;;;;5109465;28;20375;-74
2024/01/23 11:45:34;;;;;;;22.42;5.15;;;;;;;;;;5102723;28;20020;-74
2024/01/23 11:48:04;;;;;;;15.93;4.22;;;;;;;;;;5108635;28;20135;-74
2024/01/23 11:50:30;;;;;;;24.92;4.25;;;;;;;;;;5102622;28;20032;-74
2024/01/23 11:52:56;;;;;;;20.73;4.43;;;;;;;;;;5108054;28;20558;-74
2024/01/23 11:55:22;;;;;;;26.17;4.60;;;;;;;;;;5101822;28;20110;-74
2024/01/23 11:57:48;;;;;;;19.73;4.43;;;;;;;;;;5106394;28;20051;-74
2024/01/23 12:00:14;;;;;;;22.52;4.10;;;;;;;;;;5105552;28;20031;-74
2024/01/23 12:02:40;;;;;;;24.60;4.57;;;;;;;;;;5104196;28;20394;-74
2024/01/23 12:05:05;;;;;;;26.27;5.30;;;;;;;;;;5109611;28;20124;-74
2024/01/23 12:07:30;;;;;;;24.55;5.18;;;;;;;;;;5104549;28;20032;-74
2024/01/23 12:09:56;;;;;;;25.10;4.40;;;;;;;;;;5104426;28;20027;-74
2024/01/23 12:12:21;;;;;;;27.90;6.10;;;;;;;;;;5104756;28;20020;-74
2024/01/23 12:14:46;;;;;;;24.60;4.83;;;;;;;;;;5104895;28;20096;-74
2024/01/23 12:17:11;;;;;;;23.93;4.87;;;;;;;;;;5105091;28;20288;-74
2024/01/23 12:19:43;;;;;;;26.70;4.70;;;;;;;;;;5104417;28;20027;-75
2024/01/23 12:22:09;;;;;;;24.50;4.82;;;;;;;;;;5105078;28;20022;-74
2024/01/23 12:24:34;;;;;;;21.33;5.13;;;;;;;;;;5104439;28;20019;-74
2024/01/23 12:26:59;;;;;;;26.50;6.60;;;;;;;;;;5105020;28;20265;-74
2024/01/23 12:29:24;;;;;;;29.63;5.57;;;;;;;;;;5105903;28;20289;-74
2024/01/23 12:31:49;;;;;;;22.73;4.68;;;;;;;;;;5109161;28;20303;-74
2024/01/23 12:34:18;;;;;;;26.70;5.17;;;;;;;;;;5105360;28;20020;-74
2024/01/23 12:36:48;;;;;;;29.08;5.32;;;;;;;;;;5102388;28;20019;-74
2024/01/23 12:39:15;;;;;;;23.05;4.93;;;;;;;;;;5105425;28;20372;-74
2024/01/23 12:41:40;;;;;;;22.23;5.93;;;;;;;;;;5104526;28;20059;-74
2024/01/23 12:44:06;;;;;;;22.75;5.00;;;;;;;;;;5102636;28;20044;-74
2024/01/23 12:46:31;;;;;;;24.08;4.95;;;;;;;;;;5105114;28;20030;-74
2024/01/23 12:49:02;;;;;;;24.50;5.63;;;;;;;;;;5103308;28;20543;-74
2024/01/23 12:51:28;;;;;;;29.70;6.43;;;;;;;;;;5097335;28;20695;-74
2024/01/23 12:53:56;;;;;;;26.13;6.13;;;;;;;;;;5104446;28;20023;-74
2024/01/23 12:56:21;;;;;;;27.05;5.47;;;;;;;;;;5103474;28;20487;-74
2024/01/23 12:58:46;;;;;;;30.30;5.27;;;;;;;;;;5105213;28;20040;-74
2024/01/23 13:01:11;;;;;;;22.77;5.22;;;;;;;;;;5101668;28;20352;-74
2024/01/23 13:03:36;;;;;;;33.90;4.77;;;;;;;;;;5111909;28;20084;-74
2024/01/23 13:06:02;;;;;;;30.10;5.85;;;;;;;;;;5101091;28;20024;-74
2024/01/23 13:08:27;;;;;;;26.48;4.90;;;;;;;;;;5108602;28;20018;-74
2024/01/23 13:10:55;;;;;;;27.50;5.10;;;;;;;;;;5100836;28;20032;-74
2024/01/23 13:13:21;;;;;;;25.42;5.57;;;;;;;;;;5108043;28;20051;-74
2024/01/23 13:15:46;;;;;;;26.85;5.38;;;;;;;;;;5101087;28;20050;-74
2024/01/23 13:18:11;;;;;;;30.90;6.22;;;;;;;;;;5106662;28;20433;-74
2024/01/23 13:20:36;;;;;;;35.70;5.78;;;;;;;;;;5102813;28;20493;-74
2024/01/23 13:23:02;;;;;;;26.77;5.80;;;;;;;;;;5104658;28;20020;-74
2024/01/23 13:25:27;;;;;;;28.30;5.35;;;;;;;;;;5104124;28;20780;-74
2024/01/23 13:27:52;;;;;;;29.63;6.20;;;;;;;;;;5102958;28;20016;-74
2024/01/23 13:30:17;;;;;;;20.73;5.70;;;;;;;;;;5099581;28;20028;-74
2024/01/23 13:32:53;;;;;;;32.67;5.65;;;;;;;;;;5106593;28;20261;-74
2024/01/23 13:35:18;;;;;;;31.65;5.65;;;;;;;;;;5101310;28;20051;-74
2024/01/23 13:37:43;;;;;;;34.90;6.97;;;;;;;;;;5107075;28;20020;-74
2024/01/23 13:40:10;;;;;;;30.02;6.25;;;;;;;;;;5100744;28;20020;-74
2024/01/23 13:42:35;;;;;;;28.90;6.63;;;;;;;;;;5105382;28;20019;-74
2024/01/23 13:45:00;;;;;;;22.63;5.55;;;;;;;;;;5102765;28;20023;-74
2024/01/23 13:47:26;;;;;;;26.13;5.53;;;;;;;;;;5104226;28;20019;-74
2024/01/23 13:49:52;;;;;;;33.42;6.90;;;;;;;;;;5104009;28;20031;-74
2024/01/23 13:52:17;;;;;;;32.55;6.22;;;;;;;;;;5102289;28;20353;-74
2024/01/23 13:54:42;;;;;;;25.20;6.47;;;;;;;;;;5103038;28;20383;-74
2024/01/23 13:57:07;;;;;;;26.67;5.70;;;;;;;;;;5102367;28;20028;-74
2024/01/23 13:59:32;;;;;;;33.80;6.50;;;;;;;;;;5103735;28;20325;-74
2024/01/23 14:01:58;;;;;;;30.23;6.80;;;;;;;;;;5102846;28;20417;-74
2024/01/23 14:04:23;;;;;;;30.37;6.00;;;;;;;;;;5106640;28;20266;-74
2024/01/23 14:06:49;;;;;;;25.95;6.57;;;;;;;;;;5103621;28;20030;-74
2024/01/23 14:09:15;;;;;;;25.83;5.20;;;;;;;;;;5102497;28;20024;-74
2024/01/23 14:11:40;;;;;;;33.45;6.18;;;;;;;;;;5103374;28;20125;-74
2024/01/23 14:14:06;;;;;;;27.13;5.28;;;;;;;;;;5105349;28;20012;-74
2024/01/23 14:16:31;;;;;;;24.58;6.07;;;;;;;;;;5107393;28;20035;-74
2024/01/23 14:18:57;;;;;;;32.47;6.43;;;;;;;;;;5110079;28;20068;-74
2024/01/23 14:21:22;;;;;;;29.08;6.13;;;;;;;;;;5104266;28;20803;-74